sensor_id;sensor_type;location;lat;lon;timestamp;P1;durP1;ratioP1;P2;durP2;ratioP2
40953;SDS011;26686;50.130;8.710;2023-05-10T00:03:06;1.83;;;0.40;;
40953;SDS011;26686;50.130;8.710;2023-05-10T00:08:07;0.85;;;0.30;;
40953;SDS011;26686;50.130;8.710;2023-05-10T00:13:09;1.17;;;0.35;;
40953;SDS011;26686;50.130;8.710;2023-05-10T00:18:10;0.75;;;0.60;;
40953;SDS011;26686;50.130;8.710;2023-05-10T00:23:12;7.20;;;1.60;;
40953;SDS011;26686;50.130;8.710;2023-05-10T00:28:13;1.17;;;0.70;;
40953;SDS011;26686;50.130;8.710;2023-05-10T00:33:15;0.70;;;0.60;;
40953;SDS011;26686;50.130;8.710;2023-05-10T00:38:16;1.05;;;0.60;;
40953;SDS011;26686;50.130;8.710;2023-05-10T00:43:17;2.08;;;0.50;;
40953;SDS011;26686;50.130;8.710;2023-05-10T00:48:19;0.60;;;0.50;;
40953;SDS011;26686;50.130;8.710;2023-05-10T00:53:20;1.75;;;0.35;;
40953;SDS011;26686;50.130;8.710;2023-05-10T00:58:22;1.33;;;0.30;;
40953;SDS011;26686;50.130;8.710;2023-05-10T01:03:25;0.40;;;0.25;;
40953;SDS011;26686;50.130;8.710;2023-05-10T01:08:26;0.85;;;0.20;;
40953;SDS011;26686;50.130;8.710;2023-05-10T01:13:36;0.80;;;0.40;;
40953;SDS011;26686;50.130;8.710;2023-05-10T01:18:39;0.52;;;0.40;;
40953;SDS011;26686;50.130;8.710;2023-05-10T01:35:47;1.38;;;0.10;;
40953;SDS011;26686;50.130;8.710;2023-05-10T01:51:05;0.95;;;0.20;;
40953;SDS011;26686;50.130;8.710;2023-05-10T01:56:08;0.28;;;0.25;;
40953;SDS011;26686;50.130;8.710;2023-05-10T02:01:12;0.97;;;0.20;;
40953;SDS011;26686;50.130;8.710;2023-05-10T02:06:14;1.75;;;0.30;;
40953;SDS011;26686;50.130;8.710;2023-05-10T02:11:19;1.00;;;0.32;;
40953;SDS011;26686;50.130;8.710;2023-05-10T02:16:23;0.40;;;0.17;;
40953;SDS011;26686;50.130;8.710;2023-05-10T02:21:27;0.40;;;0.20;;
40953;SDS011;26686;50.130;8.710;2023-05-10T02:26:30;0.63;;;0.20;;
40953;SDS011;26686;50.130;8.710;2023-05-10T02:31:34;0.50;;;0.22;;
40953;SDS011;26686;50.130;8.710;2023-05-10T02:36:37;0.35;;;0.20;;
40953;SDS011;26686;50.130;8.710;2023-05-10T02:41:40;0.93;;;0.30;;
40953;SDS011;26686;50.130;8.710;2023-05-10T02:46:43;0.38;;;0.28;;
40953;SDS011;26686;50.130;8.710;2023-05-10T02:51:53;1.77;;;0.30;;
40953;SDS011;26686;50.130;8.710;2023-05-10T02:57:02;0.40;;;0.20;;
40953;SDS011;26686;50.130;8.710;2023-05-10T03:02:05;0.30;;;0.20;;
40953;SDS011;26686;50.130;8.710;2023-05-10T03:07:07;2.47;;;0.40;;
40953;SDS011;26686;50.130;8.710;2023-05-10T03:17:30;0.82;;;0.30;;
40953;SDS011;26686;50.130;8.710;2023-05-10T03:22:45;1.45;;;0.30;;
40953;SDS011;26686;50.130;8.710;2023-05-10T03:27:50;1.15;;;0.22;;
40953;SDS011;26686;50.130;8.710;2023-05-10T03:32:53;0.55;;;0.22;;
40953;SDS011;26686;50.130;8.710;2023-05-10T03:37:55;1.10;;;0.28;;
40953;SDS011;26686;50.130;8.710;2023-05-10T03:42:56;0.80;;;0.40;;
40953;SDS011;26686;50.130;8.710;2023-05-10T03:47:58;0.77;;;0.40;;
40953;SDS011;26686;50.130;8.710;2023-05-10T03:52:59;2.58;;;0.57;;
40953;SDS011;26686;50.130;8.710;2023-05-10T03:58:01;1.25;;;0.40;;
40953;SDS011;26686;50.130;8.710;2023-05-10T04:03:02;1.45;;;0.40;;
40953;SDS011;26686;50.130;8.710;2023-05-10T04:08:04;1.77;;;0.40;;
40953;SDS011;26686;50.130;8.710;2023-05-10T04:13:06;0.88;;;0.25;;
40953;SDS011;26686;50.130;8.710;2023-05-10T04:18:07;0.70;;;0.40;;
40953;SDS011;26686;50.130;8.710;2023-05-10T04:23:09;1.38;;;0.40;;
40953;SDS011;26686;50.130;8.710;2023-05-10T04:28:10;3.20;;;0.60;;
40953;SDS011;26686;50.130;8.710;2023-05-10T04:33:11;1.67;;;0.40;;
40953;SDS011;26686;50.130;8.710;2023-05-10T04:38:13;1.30;;;0.40;;
40953;SDS011;26686;50.130;8.710;2023-05-10T04:43:14;1.33;;;0.47;;
40953;SDS011;26686;50.130;8.710;2023-05-10T04:48:15;1.27;;;0.60;;
40953;SDS011;26686;50.130;8.710;2023-05-10T04:53:17;2.65;;;0.80;;
40953;SDS011;26686;50.130;8.710;2023-05-10T04:58:18;1.27;;;0.70;;
40953;SDS011;26686;50.130;8.710;2023-05-10T05:03:20;2.10;;;0.80;;
40953;SDS011;26686;50.130;8.710;2023-05-10T05:08:22;0.77;;;0.50;;
40953;SDS011;26686;50.130;8.710;2023-05-10T05:13:23;1.15;;;0.85;;
40953;SDS011;26686;50.130;8.710;2023-05-10T05:18:25;2.58;;;0.90;;
40953;SDS011;26686;50.130;8.710;2023-05-10T05:23:27;3.28;;;0.98;;
40953;SDS011;26686;50.130;8.710;2023-05-10T05:28:28;1.70;;;0.93;;
40953;SDS011;26686;50.130;8.710;2023-05-10T05:33:33;1.50;;;1.00;;
40953;SDS011;26686;50.130;8.710;2023-05-10T05:38:35;2.20;;;1.35;;
40953;SDS011;26686;50.130;8.710;2023-05-10T05:43:36;2.08;;;1.27;;
40953;SDS011;26686;50.130;8.710;2023-05-10T05:48:38;2.90;;;2.00;;
40953;SDS011;26686;50.130;8.710;2023-05-10T05:53:40;1.98;;;1.42;;
40953;SDS011;26686;50.130;8.710;2023-05-10T05:58:41;3.03;;;1.42;;
40953;SDS011;26686;50.130;8.710;2023-05-10T06:03:43;3.85;;;1.80;;
40953;SDS011;26686;50.130;8.710;2023-05-10T06:08:44;3.28;;;2.05;;
40953;SDS011;26686;50.130;8.710;2023-05-10T06:13:46;3.03;;;1.70;;
40953;SDS011;26686;50.130;8.710;2023-05-10T06:18:48;2.28;;;1.80;;
40953;SDS011;26686;50.130;8.710;2023-05-10T06:23:49;3.22;;;2.30;;
40953;SDS011;26686;50.130;8.710;2023-05-10T06:28:51;4.47;;;2.58;;
40953;SDS011;26686;50.130;8.710;2023-05-10T06:33:52;4.03;;;1.92;;
40953;SDS011;26686;50.130;8.710;2023-05-10T06:38:56;3.70;;;2.30;;
40953;SDS011;26686;50.130;8.710;2023-05-10T06:43:58;1.80;;;1.70;;
40953;SDS011;26686;50.130;8.710;2023-05-10T06:48:59;5.50;;;1.55;;
40953;SDS011;26686;50.130;8.710;2023-05-10T06:54:00;2.50;;;1.92;;
40953;SDS011;26686;50.130;8.710;2023-05-10T06:59:02;2.58;;;2.10;;
40953;SDS011;26686;50.130;8.710;2023-05-10T07:04:04;4.05;;;2.00;;
40953;SDS011;26686;50.130;8.710;2023-05-10T07:09:05;4.72;;;2.25;;
40953;SDS011;26686;50.130;8.710;2023-05-10T07:14:08;3.40;;;2.38;;
40953;SDS011;26686;50.130;8.710;2023-05-10T07:19:09;4.18;;;2.08;;
40953;SDS011;26686;50.130;8.710;2023-05-10T07:24:11;3.17;;;1.42;;
40953;SDS011;26686;50.130;8.710;2023-05-10T07:29:12;6.25;;;2.60;;
40953;SDS011;26686;50.130;8.710;2023-05-10T07:34:14;2.88;;;1.92;;
40953;SDS011;26686;50.130;8.710;2023-05-10T07:39:15;5.32;;;2.25;;
40953;SDS011;26686;50.130;8.710;2023-05-10T07:44:28;3.78;;;1.83;;
40953;SDS011;26686;50.130;8.710;2023-05-10T07:49:29;2.20;;;2.00;;
40953;SDS011;26686;50.130;8.710;2023-05-10T07:54:31;5.75;;;2.00;;
40953;SDS011;26686;50.130;8.710;2023-05-10T07:59:32;5.68;;;2.10;;
40953;SDS011;26686;50.130;8.710;2023-05-10T08:04:34;4.63;;;2.10;;
40953;SDS011;26686;50.130;8.710;2023-05-10T08:09:35;8.57;;;2.78;;
40953;SDS011;26686;50.130;8.710;2023-05-10T08:14:37;4.32;;;2.03;;
40953;SDS011;26686;50.130;8.710;2023-05-10T08:19:38;6.80;;;2.03;;
40953;SDS011;26686;50.130;8.710;2023-05-10T08:24:39;3.58;;;1.85;;
40953;SDS011;26686;50.130;8.710;2023-05-10T08:29:42;2.63;;;1.80;;
40953;SDS011;26686;50.130;8.710;2023-05-10T08:34:50;4.68;;;1.83;;
40953;SDS011;26686;50.130;8.710;2023-05-10T08:39:52;3.80;;;1.73;;
40953;SDS011;26686;50.130;8.710;2023-05-10T08:44:53;2.85;;;1.80;;
40953;SDS011;26686;50.130;8.710;2023-05-10T08:49:55;6.28;;;2.25;;
40953;SDS011;26686;50.130;8.710;2023-05-10T08:54:59;2.67;;;1.52;;
40953;SDS011;26686;50.130;8.710;2023-05-10T09:00:00;5.70;;;1.48;;
40953;SDS011;26686;50.130;8.710;2023-05-10T09:05:02;3.67;;;1.42;;
40953;SDS011;26686;50.130;8.710;2023-05-10T09:10:06;2.93;;;1.30;;
40953;SDS011;26686;50.130;8.710;2023-05-10T09:15:08;2.17;;;1.30;;
40953;SDS011;26686;50.130;8.710;2023-05-10T09:20:10;3.08;;;1.50;;
40953;SDS011;26686;50.130;8.710;2023-05-10T09:25:15;3.65;;;1.38;;
40953;SDS011;26686;50.130;8.710;2023-05-10T09:30:24;3.00;;;1.67;;
40953;SDS011;26686;50.130;8.710;2023-05-10T09:35:31;5.60;;;1.40;;
40953;SDS011;26686;50.130;8.710;2023-05-10T09:40:33;5.20;;;1.40;;
40953;SDS011;26686;50.130;8.710;2023-05-10T09:45:35;2.15;;;1.23;;
40953;SDS011;26686;50.130;8.710;2023-05-10T09:50:39;3.88;;;1.20;;
40953;SDS011;26686;50.130;8.710;2023-05-10T09:55:42;1.58;;;1.17;;
40953;SDS011;26686;50.130;8.710;2023-05-10T10:00:47;2.55;;;0.70;;
40953;SDS011;26686;50.130;8.710;2023-05-10T10:05:52;3.70;;;1.05;;
40953;SDS011;26686;50.130;8.710;2023-05-10T10:10:54;1.42;;;0.80;;
40953;SDS011;26686;50.130;8.710;2023-05-10T10:15:56;5.38;;;0.80;;
40953;SDS011;26686;50.130;8.710;2023-05-10T10:20:57;1.65;;;1.10;;
40953;SDS011;26686;50.130;8.710;2023-05-10T10:25:59;3.03;;;1.70;;
40953;SDS011;26686;50.130;8.710;2023-05-10T10:31:03;3.20;;;1.25;;
40953;SDS011;26686;50.130;8.710;2023-05-10T10:36:18;3.55;;;1.50;;
40953;SDS011;26686;50.130;8.710;2023-05-10T10:41:36;3.15;;;1.52;;
40953;SDS011;26686;50.130;8.710;2023-05-10T10:52:34;1.75;;;1.13;;
40953;SDS011;26686;50.130;8.710;2023-05-10T11:07:55;2.00;;;0.88;;
40953;SDS011;26686;50.130;8.710;2023-05-10T11:12:59;3.63;;;2.33;;
40953;SDS011;26686;50.130;8.710;2023-05-10T11:18:18;1.80;;;0.50;;
40953;SDS011;26686;50.130;8.710;2023-05-10T11:23:21;0.70;;;0.50;;
40953;SDS011;26686;50.130;8.710;2023-05-10T11:28:22;0.65;;;0.40;;
40953;SDS011;26686;50.130;8.710;2023-05-10T11:33:24;1.58;;;0.40;;
40953;SDS011;26686;50.130;8.710;2023-05-10T11:38:25;1.00;;;0.40;;
40953;SDS011;26686;50.130;8.710;2023-05-10T11:43:26;1.45;;;0.50;;
40953;SDS011;26686;50.130;8.710;2023-05-10T11:48:31;2.25;;;0.50;;
40953;SDS011;26686;50.130;8.710;2023-05-10T11:53:33;2.63;;;0.52;;
40953;SDS011;26686;50.130;8.710;2023-05-10T11:58:35;2.67;;;0.40;;
40953;SDS011;26686;50.130;8.710;2023-05-10T12:03:37;1.07;;;0.63;;
40953;SDS011;26686;50.130;8.710;2023-05-10T12:08:43;1.95;;;1.10;;
40953;SDS011;26686;50.130;8.710;2023-05-10T12:13:47;2.83;;;0.98;;
40953;SDS011;26686;50.130;8.710;2023-05-10T12:18:49;2.42;;;1.40;;
40953;SDS011;26686;50.130;8.710;2023-05-10T12:23:56;1.77;;;0.90;;
40953;SDS011;26686;50.130;8.710;2023-05-10T12:29:14;2.50;;;1.13;;
40953;SDS011;26686;50.130;8.710;2023-05-10T12:34:26;2.47;;;1.02;;
40953;SDS011;26686;50.130;8.710;2023-05-10T12:39:43;4.78;;;1.30;;
40953;SDS011;26686;50.130;8.710;2023-05-10T12:44:47;2.22;;;0.85;;
40953;SDS011;26686;50.130;8.710;2023-05-10T12:49:48;0.52;;;0.35;;
40953;SDS011;26686;50.130;8.710;2023-05-10T12:54:49;1.90;;;0.52;;
40953;SDS011;26686;50.130;8.710;2023-05-10T12:59:51;1.08;;;0.55;;
40953;SDS011;26686;50.130;8.710;2023-05-10T13:04:52;3.08;;;0.50;;
40953;SDS011;26686;50.130;8.710;2023-05-10T13:09:54;0.98;;;0.40;;
40953;SDS011;26686;50.130;8.710;2023-05-10T13:14:55;0.65;;;0.30;;
40953;SDS011;26686;50.130;8.710;2023-05-10T13:19:57;2.58;;;0.40;;
40953;SDS011;26686;50.130;8.710;2023-05-10T13:24:58;0.80;;;0.20;;
40953;SDS011;26686;50.130;8.710;2023-05-10T13:29:59;2.58;;;0.40;;
40953;SDS011;26686;50.130;8.710;2023-05-10T13:35:01;1.17;;;0.20;;
40953;SDS011;26686;50.130;8.710;2023-05-10T13:40:04;2.40;;;0.32;;
40953;SDS011;26686;50.130;8.710;2023-05-10T13:45:06;1.83;;;0.60;;
40953;SDS011;26686;50.130;8.710;2023-05-10T13:50:08;2.90;;;0.52;;
40953;SDS011;26686;50.130;8.710;2023-05-10T13:55:09;1.48;;;0.32;;
40953;SDS011;26686;50.130;8.710;2023-05-10T14:00:13;2.63;;;0.70;;
40953;SDS011;26686;50.130;8.710;2023-05-10T14:05:15;1.15;;;0.35;;
40953;SDS011;26686;50.130;8.710;2023-05-10T14:10:19;0.60;;;0.20;;
40953;SDS011;26686;50.130;8.710;2023-05-10T14:15:21;1.48;;;0.47;;
40953;SDS011;26686;50.130;8.710;2023-05-10T14:20:22;0.98;;;0.20;;
40953;SDS011;26686;50.130;8.710;2023-05-10T14:25:24;0.93;;;0.30;;
40953;SDS011;26686;50.130;8.710;2023-05-10T14:30:25;1.80;;;0.30;;
40953;SDS011;26686;50.130;8.710;2023-05-10T14:35:27;1.80;;;0.45;;
40953;SDS011;26686;50.130;8.710;2023-05-10T14:40:29;0.35;;;0.17;;
40953;SDS011;26686;50.130;8.710;2023-05-10T14:45:31;2.05;;;0.70;;
40953;SDS011;26686;50.130;8.710;2023-05-10T14:50:33;1.42;;;0.40;;
40953;SDS011;26686;50.130;8.710;2023-05-10T14:55:37;3.90;;;0.30;;
40953;SDS011;26686;50.130;8.710;2023-05-10T15:00:40;1.48;;;0.30;;
40953;SDS011;26686;50.130;8.710;2023-05-10T15:05:42;1.33;;;0.30;;
40953;SDS011;26686;50.130;8.710;2023-05-10T15:10:43;2.15;;;0.30;;
40953;SDS011;26686;50.130;8.710;2023-05-10T15:15:44;1.38;;;0.40;;
40953;SDS011;26686;50.130;8.710;2023-05-10T15:20:46;0.95;;;0.45;;
40953;SDS011;26686;50.130;8.710;2023-05-10T15:25:47;0.82;;;0.30;;
40953;SDS011;26686;50.130;8.710;2023-05-10T15:30:50;0.70;;;0.33;;
40953;SDS011;26686;50.130;8.710;2023-05-10T15:35:52;2.15;;;0.30;;
40953;SDS011;26686;50.130;8.710;2023-05-10T15:40:56;1.80;;;0.40;;
40953;SDS011;26686;50.130;8.710;2023-05-10T15:45:58;1.20;;;0.50;;
40953;SDS011;26686;50.130;8.710;2023-05-10T15:51:00;1.25;;;0.40;;
40953;SDS011;26686;50.130;8.710;2023-05-10T15:56:01;0.93;;;0.35;;
40953;SDS011;26686;50.130;8.710;2023-05-10T16:01:03;0.80;;;0.35;;
40953;SDS011;26686;50.130;8.710;2023-05-10T16:06:06;1.48;;;0.47;;
40953;SDS011;26686;50.130;8.710;2023-05-10T16:11:07;1.95;;;0.32;;
40953;SDS011;26686;50.130;8.710;2023-05-10T16:16:09;2.95;;;0.40;;
40953;SDS011;26686;50.130;8.710;2023-05-10T16:21:10;1.52;;;0.50;;
40953;SDS011;26686;50.130;8.710;2023-05-10T16:26:11;1.98;;;0.65;;
40953;SDS011;26686;50.130;8.710;2023-05-10T16:31:13;4.32;;;1.05;;
40953;SDS011;26686;50.130;8.710;2023-05-10T16:36:14;2.17;;;0.65;;
40953;SDS011;26686;50.130;8.710;2023-05-10T16:41:15;2.08;;;0.80;;
40953;SDS011;26686;50.130;8.710;2023-05-10T16:46:17;1.67;;;0.60;;
40953;SDS011;26686;50.130;8.710;2023-05-10T16:51:18;3.33;;;0.93;;
40953;SDS011;26686;50.130;8.710;2023-05-10T16:56:20;2.83;;;0.98;;
40953;SDS011;26686;50.130;8.710;2023-05-10T17:01:22;2.53;;;0.88;;
40953;SDS011;26686;50.130;8.710;2023-05-10T17:06:27;1.38;;;0.75;;
40953;SDS011;26686;50.130;8.710;2023-05-10T17:11:28;2.55;;;0.93;;
40953;SDS011;26686;50.130;8.710;2023-05-10T17:16:30;3.55;;;0.98;;
40953;SDS011;26686;50.130;8.710;2023-05-10T17:21:31;1.60;;;0.82;;
40953;SDS011;26686;50.130;8.710;2023-05-10T17:26:32;3.30;;;1.10;;
40953;SDS011;26686;50.130;8.710;2023-05-10T17:31:34;3.10;;;0.90;;
40953;SDS011;26686;50.130;8.710;2023-05-10T17:36:36;3.92;;;1.00;;
40953;SDS011;26686;50.130;8.710;2023-05-10T17:41:37;3.85;;;1.60;;
40953;SDS011;26686;50.130;8.710;2023-05-10T17:46:38;3.00;;;1.58;;
40953;SDS011;26686;50.130;8.710;2023-05-10T17:51:40;3.30;;;0.70;;
40953;SDS011;26686;50.130;8.710;2023-05-10T18:01:45;2.10;;;0.70;;
40953;SDS011;26686;50.130;8.710;2023-05-10T18:06:47;2.70;;;0.85;;
40953;SDS011;26686;50.130;8.710;2023-05-10T18:11:49;2.20;;;1.00;;
40953;SDS011;26686;50.130;8.710;2023-05-10T18:16:50;2.97;;;1.05;;
40953;SDS011;26686;50.130;8.710;2023-05-10T18:21:52;2.72;;;1.30;;
40953;SDS011;26686;50.130;8.710;2023-05-10T18:26:53;2.55;;;1.30;;
40953;SDS011;26686;50.130;8.710;2023-05-10T18:31:54;2.20;;;0.90;;
40953;SDS011;26686;50.130;8.710;2023-05-10T18:36:56;1.95;;;1.10;;
40953;SDS011;26686;50.130;8.710;2023-05-10T18:41:58;1.80;;;1.00;;
40953;SDS011;26686;50.130;8.710;2023-05-10T18:46:59;3.50;;;1.30;;
40953;SDS011;26686;50.130;8.710;2023-05-10T18:52:01;7.35;;;1.20;;
40953;SDS011;26686;50.130;8.710;2023-05-10T18:57:02;2.22;;;1.45;;
40953;SDS011;26686;50.130;8.710;2023-05-10T19:02:04;1.38;;;0.70;;
40953;SDS011;26686;50.130;8.710;2023-05-10T19:07:05;1.75;;;0.70;;
40953;SDS011;26686;50.130;8.710;2023-05-10T19:12:07;2.67;;;1.08;;
40953;SDS011;26686;50.130;8.710;2023-05-10T19:17:09;2.10;;;0.98;;
40953;SDS011;26686;50.130;8.710;2023-05-10T19:22:11;3.17;;;0.90;;
40953;SDS011;26686;50.130;8.710;2023-05-10T19:27:13;3.63;;;1.15;;
40953;SDS011;26686;50.130;8.710;2023-05-10T19:32:14;1.80;;;1.17;;
40953;SDS011;26686;50.130;8.710;2023-05-10T19:37:15;2.33;;;1.10;;
40953;SDS011;26686;50.130;8.710;2023-05-10T19:42:18;4.28;;;1.23;;
40953;SDS011;26686;50.130;8.710;2023-05-10T19:47:20;1.75;;;1.27;;
40953;SDS011;26686;50.130;8.710;2023-05-10T19:52:22;2.17;;;1.00;;
40953;SDS011;26686;50.130;8.710;2023-05-10T19:57:23;3.58;;;1.23;;
40953;SDS011;26686;50.130;8.710;2023-05-10T20:02:24;2.13;;;1.20;;
40953;SDS011;26686;50.130;8.710;2023-05-10T20:07:26;1.75;;;1.02;;
40953;SDS011;26686;50.130;8.710;2023-05-10T20:12:27;4.13;;;1.40;;
40953;SDS011;26686;50.130;8.710;2023-05-10T20:17:29;3.63;;;3.33;;
40953;SDS011;26686;50.130;8.710;2023-05-10T20:22:30;3.53;;;1.33;;
40953;SDS011;26686;50.130;8.710;2023-05-10T20:27:31;1.67;;;1.00;;
40953;SDS011;26686;50.130;8.710;2023-05-10T20:32:33;3.33;;;1.35;;
40953;SDS011;26686;50.130;8.710;2023-05-10T20:37:34;4.95;;;1.10;;
40953;SDS011;26686;50.130;8.710;2023-05-10T20:42:37;1.50;;;1.00;;
40953;SDS011;26686;50.130;8.710;2023-05-10T20:47:39;2.05;;;0.82;;
40953;SDS011;26686;50.130;8.710;2023-05-10T20:52:40;2.28;;;0.65;;
40953;SDS011;26686;50.130;8.710;2023-05-10T20:57:42;0.93;;;0.80;;
40953;SDS011;26686;50.130;8.710;2023-05-10T21:02:44;2.08;;;0.77;;
40953;SDS011;26686;50.130;8.710;2023-05-10T21:07:46;2.25;;;0.80;;
40953;SDS011;26686;50.130;8.710;2023-05-10T21:12:47;1.23;;;0.70;;
40953;SDS011;26686;50.130;8.710;2023-05-10T21:17:49;1.52;;;0.60;;
40953;SDS011;26686;50.130;8.710;2023-05-10T21:22:50;1.70;;;1.02;;
40953;SDS011;26686;50.130;8.710;2023-05-10T21:27:51;1.80;;;1.00;;
40953;SDS011;26686;50.130;8.710;2023-05-10T21:32:53;3.33;;;1.17;;
40953;SDS011;26686;50.130;8.710;2023-05-10T21:38:01;3.70;;;1.67;;
40953;SDS011;26686;50.130;8.710;2023-05-10T21:43:02;3.50;;;1.25;;
40953;SDS011;26686;50.130;8.710;2023-05-10T21:48:03;2.83;;;1.15;;
40953;SDS011;26686;50.130;8.710;2023-05-10T21:53:05;1.15;;;1.05;;
40953;SDS011;26686;50.130;8.710;2023-05-10T21:58:06;3.60;;;1.63;;
40953;SDS011;26686;50.130;8.710;2023-05-10T22:03:08;3.65;;;1.15;;
40953;SDS011;26686;50.130;8.710;2023-05-10T22:08:09;2.08;;;1.40;;
40953;SDS011;26686;50.130;8.710;2023-05-10T22:13:10;2.03;;;1.58;;
40953;SDS011;26686;50.130;8.710;2023-05-10T22:18:12;6.00;;;1.92;;
40953;SDS011;26686;50.130;8.710;2023-05-10T22:23:13;2.17;;;1.67;;
40953;SDS011;26686;50.130;8.710;2023-05-10T22:28:15;4.00;;;1.60;;
40953;SDS011;26686;50.130;8.710;2023-05-10T22:33:16;2.47;;;1.30;;
40953;SDS011;26686;50.130;8.710;2023-05-10T22:38:18;2.17;;;1.60;;
40953;SDS011;26686;50.130;8.710;2023-05-10T22:43:20;2.92;;;1.33;;
40953;SDS011;26686;50.130;8.710;2023-05-10T22:48:21;1.73;;;1.17;;
40953;SDS011;26686;50.130;8.710;2023-05-10T22:53:22;3.00;;;1.52;;
40953;SDS011;26686;50.130;8.710;2023-05-10T22:58:24;3.60;;;1.60;;
40953;SDS011;26686;50.130;8.710;2023-05-10T23:03:26;4.47;;;1.70;;
40953;SDS011;26686;50.130;8.710;2023-05-10T23:08:28;3.00;;;1.52;;
40953;SDS011;26686;50.130;8.710;2023-05-10T23:13:29;2.67;;;1.20;;
40953;SDS011;26686;50.130;8.710;2023-05-10T23:18:31;3.13;;;1.38;;
40953;SDS011;26686;50.130;8.710;2023-05-10T23:23:33;2.90;;;1.20;;
40953;SDS011;26686;50.130;8.710;2023-05-10T23:28:34;3.03;;;1.30;;
40953;SDS011;26686;50.130;8.710;2023-05-10T23:33:36;2.92;;;1.30;;
40953;SDS011;26686;50.130;8.710;2023-05-10T23:38:37;2.03;;;1.25;;
40953;SDS011;26686;50.130;8.710;2023-05-10T23:43:39;1.70;;;0.90;;
40953;SDS011;26686;50.130;8.710;2023-05-10T23:48:40;3.40;;;1.10;;
40953;SDS011;26686;50.130;8.710;2023-05-10T23:53:42;2.63;;;0.65;;
40953;SDS011;26686;50.130;8.710;2023-05-10T23:58:43;1.02;;;0.60;;
